sensor_id;sensor_type;location;lat;lon;timestamp;pressure;altitude;pressure_sealevel;temperature;humidity
57990;BME280;58373;51.824;5.564;2023-03-21T00:00:11;101574.50;;;8.47;100.00
57990;BME280;58373;51.824;5.564;2023-03-21T00:02:37;101567.69;;;8.46;100.00
57990;BME280;58373;51.824;5.564;2023-03-21T00:05:02;101573.06;;;8.43;100.00
57990;BME280;58373;51.824;5.564;2023-03-21T00:07:27;101570.28;;;8.46;100.00
57990;BME280;58373;51.824;5.564;2023-03-21T00:09:52;101568.53;;;8.47;100.00
57990;BME280;58373;51.824;5.564;2023-03-21T00:12:17;101561.88;;;8.43;100.00
57990;BME280;58373;51.824;5.564;2023-03-21T00:14:45;101569.72;;;8.41;100.00
57990;BME280;58373;51.824;5.564;2023-03-21T00:17:10;101559.28;;;8.43;100.00
57990;BME280;58373;51.824;5.564;2023-03-21T00:19:35;101555.88;;;8.42;100.00
57990;BME280;58373;51.824;5.564;2023-03-21T00:22:02;101558.56;;;8.41;100.00
57990;BME280;58373;51.824;5.564;2023-03-21T00:24:27;101555.88;;;8.42;100.00
57990;BME280;58373;51.824;5.564;2023-03-21T00:26:52;101558.66;;;8.39;100.00
57990;BME280;58373;51.824;5.564;2023-03-21T00:29:18;101561.25;;;8.39;100.00
57990;BME280;58373;51.824;5.564;2023-03-21T00:31:43;101554.22;;;8.41;100.00
57990;BME280;58373;51.824;5.564;2023-03-21T00:34:08;101556.06;;;8.39;100.00
57990;BME280;58373;51.824;5.564;2023-03-21T00:36:34;101545.53;;;8.42;100.00
57990;BME280;58373;51.824;5.564;2023-03-21T00:38:59;101549.03;;;8.41;100.00
57990;BME280;58373;51.824;5.564;2023-03-21T00:41:24;101544.06;;;8.38;100.00
57990;BME280;58373;51.824;5.564;2023-03-21T00:43:50;101545.91;;;8.36;100.00
57990;BME280;58373;51.824;5.564;2023-03-21T00:46:16;101539.03;;;8.35;100.00
57990;BME280;58373;51.824;5.564;2023-03-21T00:48:41;101537.38;;;8.34;100.00
57990;BME280;58373;51.824;5.564;2023-03-21T00:51:19;101538.91;;;8.38;100.00
57990;BME280;58373;51.824;5.564;2023-03-21T00:53:49;101527.06;;;8.34;100.00
57990;BME280;58373;51.824;5.564;2023-03-21T00:56:15;101532.22;;;8.34;100.00
57990;BME280;58373;51.824;5.564;2023-03-21T00:58:40;101530.56;;;8.33;100.00
57990;BME280;58373;51.824;5.564;2023-03-21T01:01:05;101523.75;;;8.32;100.00
57990;BME280;58373;51.824;5.564;2023-03-21T01:03:32;101527.22;;;8.31;100.00
57990;BME280;58373;51.824;5.564;2023-03-21T01:05:58;101522.91;;;8.32;100.00
57990;BME280;58373;51.824;5.564;2023-03-21T01:08:35;101521.31;;;8.29;100.00
57990;BME280;58373;51.824;5.564;2023-03-21T01:11:02;101516.16;;;8.29;100.00
57990;BME280;58373;51.824;5.564;2023-03-21T01:13:28;101510.25;;;8.27;100.00
57990;BME280;58373;51.824;5.564;2023-03-21T01:15:54;101508.50;;;8.28;100.00
57990;BME280;58373;51.824;5.564;2023-03-21T01:18:22;101511.00;;;8.29;100.00
57990;BME280;58373;51.824;5.564;2023-03-21T01:20:49;101498.28;;;8.26;100.00
57990;BME280;58373;51.824;5.564;2023-03-21T01:23:15;101503.44;;;8.26;100.00
57990;BME280;58373;51.824;5.564;2023-03-21T01:25:40;101498.53;;;8.21;100.00
57990;BME280;58373;51.824;5.564;2023-03-21T01:28:05;101501.13;;;8.21;100.00
57990;BME280;58373;51.824;5.564;2023-03-21T01:30:31;101494.31;;;8.20;100.00
57990;BME280;58373;51.824;5.564;2023-03-21T01:32:56;101493.44;;;8.20;100.00
57990;BME280;58373;51.824;5.564;2023-03-21T01:35:22;101487.44;;;8.19;100.00
57990;BME280;58373;51.824;5.564;2023-03-21T01:37:47;101491.78;;;8.19;100.00
57990;BME280;58373;51.824;5.564;2023-03-21T01:40:17;101490.13;;;8.18;100.00
57990;BME280;58373;51.824;5.564;2023-03-21T01:42:43;101489.31;;;8.17;100.00
57990;BME280;58373;51.824;5.564;2023-03-21T01:47:52;101481.66;;;8.16;100.00
57990;BME280;58373;51.824;5.564;2023-03-21T01:50:17;101481.66;;;8.16;100.00
57990;BME280;58373;51.824;5.564;2023-03-21T01:52:46;101471.50;;;8.13;100.00
57990;BME280;58373;51.824;5.564;2023-03-21T01:55:13;101474.84;;;8.15;100.00
57990;BME280;58373;51.824;5.564;2023-03-21T01:57:41;101466.34;;;8.13;100.00
57990;BME280;58373;51.824;5.564;2023-03-21T02:00:11;101467.16;;;8.13;100.00
57990;BME280;58373;51.824;5.564;2023-03-21T02:02:36;101466.25;;;8.14;100.00
57990;BME280;58373;51.824;5.564;2023-03-21T02:05:21;101461.16;;;8.13;100.00
57990;BME280;58373;51.824;5.564;2023-03-21T02:07:48;101454.34;;;8.12;100.00
57990;BME280;58373;51.824;5.564;2023-03-21T02:10:16;101464.69;;;8.12;100.00
57990;BME280;58373;51.824;5.564;2023-03-21T02:12:41;101461.16;;;8.13;100.00
57990;BME280;58373;51.824;5.564;2023-03-21T02:15:07;101452.47;;;8.14;100.00
57990;BME280;58373;51.824;5.564;2023-03-21T02:27:49;101435.97;;;8.16;100.00
57990;BME280;58373;51.824;5.564;2023-03-21T02:37:53;101434.13;;;8.18;100.00
57990;BME280;58373;51.824;5.564;2023-03-21T02:40:22;101433.19;;;8.19;100.00
57990;BME280;58373;51.824;5.564;2023-03-21T02:45:47;101426.25;;;8.20;100.00
57990;BME280;58373;51.824;5.564;2023-03-21T02:48:14;101426.25;;;8.20;100.00
57990;BME280;58373;51.824;5.564;2023-03-21T02:50:47;101428.84;;;8.20;100.00
57990;BME280;58373;51.824;5.564;2023-03-21T02:53:15;101422.03;;;8.19;100.00
57990;BME280;58373;51.824;5.564;2023-03-21T02:55:42;101426.47;;;8.17;100.00
57990;BME280;58373;51.824;5.564;2023-03-21T02:58:11;101421.31;;;8.17;100.00
57990;BME280;58373;51.824;5.564;2023-03-21T03:00:38;101422.22;;;8.16;100.00
57990;BME280;58373;51.824;5.564;2023-03-21T03:03:04;101418.00;;;8.15;100.00
57990;BME280;58373;51.824;5.564;2023-03-21T03:05:30;101416.31;;;8.14;100.00
57990;BME280;58373;51.824;5.564;2023-03-21T03:15:38;101413.94;;;8.11;100.00
57990;BME280;58373;51.824;5.564;2023-03-21T03:23:21;101419.00;;;8.12;100.00
57990;BME280;58373;51.824;5.564;2023-03-21T03:25:51;101414.66;;;8.13;100.00
57990;BME280;58373;51.824;5.564;2023-03-21T03:28:20;101411.25;;;8.12;100.00
57990;BME280;58373;51.824;5.564;2023-03-21T03:30:47;101413.00;;;8.12;100.00
57990;BME280;58373;51.824;5.564;2023-03-21T03:33:13;101402.66;;;8.12;100.00
57990;BME280;58373;51.824;5.564;2023-03-21T03:35:41;101399.38;;;8.10;100.00
57990;BME280;58373;51.824;5.564;2023-03-21T03:38:06;101402.66;;;8.12;100.00
57990;BME280;58373;51.824;5.564;2023-03-21T03:40:37;101399.16;;;8.13;100.00
57990;BME280;58373;51.824;5.564;2023-03-21T03:43:06;101393.16;;;8.12;100.00
57990;BME280;58373;51.824;5.564;2023-03-21T03:45:41;101388.09;;;8.11;100.00
57990;BME280;58373;51.824;5.564;2023-03-21T03:52:59;101383.66;;;8.13;100.00
57990;BME280;58373;51.824;5.564;2023-03-21T03:55:26;101374.25;;;8.12;100.00
57990;BME280;58373;51.824;5.564;2023-03-21T03:57:58;101377.66;;;8.12;100.00
57990;BME280;58373;51.824;5.564;2023-03-21T04:00:23;101376.84;;;8.12;100.00
57990;BME280;58373;51.824;5.564;2023-03-21T04:02:49;101377.66;;;8.12;100.00
57990;BME280;58373;51.824;5.564;2023-03-21T04:05:14;101376.84;;;8.12;100.00
57990;BME280;58373;51.824;5.564;2023-03-21T04:07:45;101380.44;;;8.09;100.00
57990;BME280;58373;51.824;5.564;2023-03-21T04:10:10;101375.34;;;8.08;100.00
57990;BME280;58373;51.824;5.564;2023-03-21T04:12:36;101374.53;;;8.07;100.00
57990;BME280;58373;51.824;5.564;2023-03-21T04:15:01;101376.19;;;8.08;100.00
57990;BME280;58373;51.824;5.564;2023-03-21T04:17:26;101381.34;;;8.08;100.00
57990;BME280;58373;51.824;5.564;2023-03-21T04:19:51;101370.19;;;8.08;100.00
57990;BME280;58373;51.824;5.564;2023-03-21T04:22:17;101371.88;;;8.09;100.00
57990;BME280;58373;51.824;5.564;2023-03-21T04:24:42;101359.84;;;8.08;100.00
57990;BME280;58373;51.824;5.564;2023-03-21T04:27:08;101366.72;;;8.09;100.00
57990;BME280;58373;51.824;5.564;2023-03-21T04:29:33;101364.94;;;8.09;100.00
57990;BME280;58373;51.824;5.564;2023-03-21T04:31:58;101368.38;;;8.10;100.00
57990;BME280;58373;51.824;5.564;2023-03-21T04:34:23;101366.72;;;8.09;100.00
57990;BME280;58373;51.824;5.564;2023-03-21T04:36:52;101366.72;;;8.09;100.00
57990;BME280;58373;51.824;5.564;2023-03-21T04:39:18;101364.84;;;8.11;100.00
57990;BME280;58373;51.824;5.564;2023-03-21T04:41:44;101362.16;;;8.12;100.00
57990;BME280;58373;51.824;5.564;2023-03-21T04:44:11;101354.50;;;8.11;100.00
57990;BME280;58373;51.824;5.564;2023-03-21T04:46:36;101359.69;;;8.11;100.00
57990;BME280;58373;51.824;5.564;2023-03-21T04:49:02;101364.13;;;8.09;100.00
57990;BME280;58373;51.824;5.564;2023-03-21T04:51:28;101358.19;;;8.07;100.00
57990;BME280;58373;51.824;5.564;2023-03-21T04:53:53;101365.94;;;8.07;100.00
57990;BME280;58373;51.824;5.564;2023-03-21T04:56:22;101348.91;;;8.04;100.00
57990;BME280;58373;51.824;5.564;2023-03-21T04:58:48;101343.75;;;8.04;100.00
57990;BME280;58373;51.824;5.564;2023-03-21T05:01:14;101344.56;;;8.05;100.00
57990;BME280;58373;51.824;5.564;2023-03-21T05:03:44;101341.88;;;8.06;100.00
57990;BME280;58373;51.824;5.564;2023-03-21T05:06:09;101337.53;;;8.07;100.00
57990;BME280;58373;51.824;5.564;2023-03-21T05:08:34;101341.78;;;8.08;100.00
57990;BME280;58373;51.824;5.564;2023-03-21T05:11:00;101337.53;;;8.07;100.00
57990;BME280;58373;51.824;5.564;2023-03-21T05:13:25;101335.88;;;8.06;100.00
57990;BME280;58373;51.824;5.564;2023-03-21T05:15:51;101340.22;;;8.05;100.00
57990;BME280;58373;51.824;5.564;2023-03-21T05:18:16;101340.22;;;8.05;100.00
57990;BME280;58373;51.824;5.564;2023-03-21T05:20:48;101341.97;;;8.05;100.00
57990;BME280;58373;51.824;5.564;2023-03-21T05:23:18;101336.06;;;8.03;100.00
57990;BME280;58373;51.824;5.564;2023-03-21T05:25:43;101334.41;;;8.02;100.00
57990;BME280;58373;51.824;5.564;2023-03-21T05:28:08;101328.41;;;8.01;100.00
57990;BME280;58373;51.824;5.564;2023-03-21T05:30:33;101331.09;;;7.99;100.00
57990;BME280;58373;51.824;5.564;2023-03-21T05:32:58;101333.78;;;7.98;100.00
57990;BME280;58373;51.824;5.564;2023-03-21T05:35:24;101320.94;;;7.96;100.00
57990;BME280;58373;51.824;5.564;2023-03-21T05:37:49;101326.13;;;7.96;100.00
57990;BME280;58373;51.824;5.564;2023-03-21T05:40:14;101322.63;;;7.97;100.00
57990;BME280;58373;51.824;5.564;2023-03-21T05:42:40;101322.69;;;7.96;100.00
57990;BME280;58373;51.824;5.564;2023-03-21T05:45:05;101325.94;;;7.99;100.00
57990;BME280;58373;51.824;5.564;2023-03-21T05:47:30;101325.94;;;7.99;100.00
57990;BME280;58373;51.824;5.564;2023-03-21T05:49:55;101330.28;;;7.99;100.00
57990;BME280;58373;51.824;5.564;2023-03-21T05:52:21;101331.28;;;7.96;100.00
57990;BME280;58373;51.824;5.564;2023-03-21T05:54:46;101329.63;;;7.95;100.00
57990;BME280;58373;51.824;5.564;2023-03-21T05:57:11;101327.97;;;7.94;100.00
57990;BME280;58373;51.824;5.564;2023-03-21T05:59:37;101326.22;;;7.95;100.00
57990;BME280;58373;51.824;5.564;2023-03-21T06:02:02;101325.28;;;7.96;100.00
57990;BME280;58373;51.824;5.564;2023-03-21T06:04:27;101320.94;;;7.96;100.00
57990;BME280;58373;51.824;5.564;2023-03-21T06:06:53;101322.63;;;7.97;100.00
57990;BME280;58373;51.824;5.564;2023-03-21T06:09:19;101318.28;;;7.98;100.00
57990;BME280;58373;51.824;5.564;2023-03-21T06:11:51;101319.13;;;7.98;100.00
57990;BME280;58373;51.824;5.564;2023-03-21T06:14:17;101319.13;;;7.98;100.00
57990;BME280;58373;51.824;5.564;2023-03-21T06:16:43;101315.59;;;7.99;100.00
57990;BME280;58373;51.824;5.564;2023-03-21T06:19:08;101318.91;;;8.02;100.00
57990;BME280;58373;51.824;5.564;2023-03-21T06:21:34;101315.41;;;8.03;100.00
57990;BME280;58373;51.824;5.564;2023-03-21T06:23:59;101315.41;;;8.03;100.00
57990;BME280;58373;51.824;5.564;2023-03-21T06:26:24;101317.09;;;8.04;100.00
57990;BME280;58373;51.824;5.564;2023-03-21T06:28:50;101328.25;;;8.04;100.00
57990;BME280;58373;51.824;5.564;2023-03-21T06:31:15;101330.72;;;8.06;100.00
57990;BME280;58373;51.824;5.564;2023-03-21T06:33:41;101325.56;;;8.06;100.00
57990;BME280;58373;51.824;5.564;2023-03-21T06:36:06;101325.56;;;8.06;100.00
57990;BME280;58373;51.824;5.564;2023-03-21T06:38:32;101332.38;;;8.07;100.00
57990;BME280;58373;51.824;5.564;2023-03-21T06:40:57;101331.44;;;8.08;100.00
57990;BME280;58373;51.824;5.564;2023-03-21T06:43:22;101326.38;;;8.06;100.00
57990;BME280;58373;51.824;5.564;2023-03-21T06:45:48;101328.84;;;8.08;100.00
57990;BME280;58373;51.824;5.564;2023-03-21T06:48:13;101328.84;;;8.08;100.00
57990;BME280;58373;51.824;5.564;2023-03-21T06:50:38;101332.19;;;8.10;100.00
57990;BME280;58373;51.824;5.564;2023-03-21T06:53:04;101323.50;;;8.11;100.00
57990;BME280;58373;51.824;5.564;2023-03-21T06:55:29;101324.22;;;8.13;100.00
57990;BME280;58373;51.824;5.564;2023-03-21T06:57:55;101323.28;;;8.14;100.00
57990;BME280;58373;51.824;5.564;2023-03-21T07:00:20;101330.16;;;8.15;100.00
57990;BME280;58373;51.824;5.564;2023-03-21T07:02:46;101323.13;;;8.17;100.00
57990;BME280;58373;51.824;5.564;2023-03-21T07:05:11;101327.34;;;8.18;100.00
57990;BME280;58373;51.824;5.564;2023-03-21T07:07:36;101332.41;;;8.19;100.00
57990;BME280;58373;51.824;5.564;2023-03-21T07:10:02;101329.75;;;8.21;100.00
57990;BME280;58373;51.824;5.564;2023-03-21T07:12:27;101329.66;;;8.22;100.00
57990;BME280;58373;51.824;5.564;2023-03-21T07:14:52;101334.72;;;8.24;100.00
57990;BME280;58373;51.824;5.564;2023-03-21T07:17:18;101338.06;;;8.26;100.00
57990;BME280;58373;51.824;5.564;2023-03-21T07:19:43;101329.38;;;8.27;100.00
57990;BME280;58373;51.824;5.564;2023-03-21T07:22:08;101325.84;;;8.28;100.00
57990;BME280;58373;51.824;5.564;2023-03-21T07:24:33;101343.84;;;8.30;100.00
57990;BME280;58373;51.824;5.564;2023-03-21T07:26:58;101335.97;;;8.31;100.00
57990;BME280;58373;51.824;5.564;2023-03-21T07:29:23;101344.66;;;8.30;100.00
57990;BME280;58373;51.824;5.564;2023-03-21T07:31:49;101342.81;;;8.32;100.00
57990;BME280;58373;51.824;5.564;2023-03-21T07:34:14;101347.06;;;8.33;100.00
57990;BME280;58373;51.824;5.564;2023-03-21T07:36:41;101353.16;;;8.32;100.00
57990;BME280;58373;51.824;5.564;2023-03-21T07:39:06;101343.91;;;8.42;100.00
57990;BME280;58373;51.824;5.564;2023-03-21T07:41:31;101347.78;;;8.35;100.00
57990;BME280;58373;51.824;5.564;2023-03-21T07:43:57;101341.72;;;8.36;100.00
57990;BME280;58373;51.824;5.564;2023-03-21T07:46:22;101354.47;;;8.39;100.00
57990;BME280;58373;51.824;5.564;2023-03-21T07:48:47;101339.88;;;8.38;100.00
57990;BME280;58373;51.824;5.564;2023-03-21T07:51:12;101347.63;;;8.38;100.00
57990;BME280;58373;51.824;5.564;2023-03-21T07:53:38;101342.91;;;8.45;100.00
57990;BME280;58373;51.824;5.564;2023-03-21T07:56:05;101341.44;;;8.41;100.00
57990;BME280;58373;51.824;5.564;2023-03-21T07:58:31;101341.31;;;8.42;100.00
57990;BME280;58373;51.824;5.564;2023-03-21T08:00:58;101330.06;;;8.43;100.00
57990;BME280;58373;51.824;5.564;2023-03-21T08:03:23;101325.81;;;8.42;100.00
57990;BME280;58373;51.824;5.564;2023-03-21T08:05:50;101333.56;;;8.42;100.00
57990;BME280;58373;51.824;5.564;2023-03-21T08:08:15;101329.16;;;8.44;100.00
57990;BME280;58373;51.824;5.564;2023-03-21T08:10:41;101320.47;;;8.45;100.00
57990;BME280;58373;51.824;5.564;2023-03-21T08:13:06;101328.94;;;8.47;100.00
57990;BME280;58373;51.824;5.564;2023-03-21T08:15:31;101324.69;;;8.46;100.00
57990;BME280;58373;51.824;5.564;2023-03-21T08:17:57;101319.53;;;8.46;100.00
57990;BME280;58373;51.824;5.564;2023-03-21T08:20:23;101322.81;;;8.48;100.00
57990;BME280;58373;51.824;5.564;2023-03-21T08:22:48;101317.66;;;8.48;100.00
57990;BME280;58373;51.824;5.564;2023-03-21T08:25:14;101315.81;;;8.50;100.00
57990;BME280;58373;51.824;5.564;2023-03-21T08:27:40;101303.63;;;8.52;100.00
57990;BME280;58373;51.824;5.564;2023-03-21T08:30:06;101312.13;;;8.55;100.00
57990;BME280;58373;51.824;5.564;2023-03-21T08:32:32;101305.06;;;8.57;100.00
57990;BME280;58373;51.824;5.564;2023-03-21T08:35:00;101301.56;;;8.58;100.00
57990;BME280;58373;51.824;5.564;2023-03-21T08:37:26;101299.78;;;8.58;100.00
57990;BME280;58373;51.824;5.564;2023-03-21T08:39:52;101298.03;;;8.59;100.00
57990;BME280;58373;51.824;5.564;2023-03-21T08:42:18;101299.69;;;8.60;100.00
57990;BME280;58373;51.824;5.564;2023-03-21T08:44:43;101303.84;;;8.62;100.00
57990;BME280;58373;51.824;5.564;2023-03-21T08:47:08;101301.16;;;8.64;100.00
57990;BME280;58373;51.824;5.564;2023-03-21T08:49:34;101294.09;;;8.66;100.00
57990;BME280;58373;51.824;5.564;2023-03-21T08:52:00;101297.44;;;8.68;100.00
57990;BME280;58373;51.824;5.564;2023-03-21T08:54:25;101299.09;;;8.69;100.00
57990;BME280;58373;51.824;5.564;2023-03-21T08:56:50;101286.06;;;8.70;100.00
57990;BME280;58373;51.824;5.564;2023-03-21T08:59:15;101281.53;;;8.74;100.00
57990;BME280;58373;51.824;5.564;2023-03-21T09:01:40;101283.16;;;8.75;100.00
57990;BME280;58373;51.824;5.564;2023-03-21T09:04:06;101277.81;;;8.78;100.00
57990;BME280;58373;51.824;5.564;2023-03-21T09:06:34;101272.41;;;8.81;100.00
57990;BME280;58373;51.824;5.564;2023-03-21T09:09:00;101279.25;;;8.82;100.00
57990;BME280;58373;51.824;5.564;2023-03-21T09:11:25;101278.94;;;8.87;100.00
57990;BME280;58373;51.824;5.564;2023-03-21T09:13:50;101282.25;;;8.89;100.00
57990;BME280;58373;51.824;5.564;2023-03-21T09:16:15;101275.34;;;8.89;100.00
57990;BME280;58373;51.824;5.564;2023-03-21T09:18:40;101278.63;;;8.91;100.00
57990;BME280;58373;51.824;5.564;2023-03-21T09:21:11;101279.34;;;8.93;100.00
57990;BME280;58373;51.824;5.564;2023-03-21T09:23:37;101268.91;;;8.95;100.00
57990;BME280;58373;51.824;5.564;2023-03-21T09:26:03;101267.03;;;8.97;100.00
57990;BME280;58373;51.824;5.564;2023-03-21T09:28:29;101258.34;;;8.98;100.00
57990;BME280;58373;51.824;5.564;2023-03-21T09:30:56;101266.81;;;9.00;100.00
57990;BME280;58373;51.824;5.564;2023-03-21T09:33:22;101259.06;;;9.00;100.00
57990;BME280;58373;51.824;5.564;2023-03-21T09:35:49;101259.91;;;9.00;100.00
57990;BME280;58373;51.824;5.564;2023-03-21T09:38:15;101257.09;;;9.03;100.00
57990;BME280;58373;51.824;5.564;2023-03-21T09:48:37;101254.59;;;9.15;100.00
57990;BME280;58373;51.824;5.564;2023-03-21T09:51:07;101246.53;;;9.19;100.00
57990;BME280;58373;51.824;5.564;2023-03-21T09:53:36;101248.81;;;9.24;100.00
57990;BME280;58373;51.824;5.564;2023-03-21T09:56:04;101235.63;;;9.27;100.00
57990;BME280;58373;51.824;5.564;2023-03-21T09:58:40;101234.38;;;9.32;100.00
57990;BME280;58373;51.824;5.564;2023-03-21T10:01:09;101233.25;;;9.37;100.00
57990;BME280;58373;51.824;5.564;2023-03-21T10:03:46;101225.25;;;9.40;100.00
57990;BME280;58373;51.824;5.564;2023-03-21T10:06:13;101229.16;;;9.45;100.00
57990;BME280;58373;51.824;5.564;2023-03-21T10:08:40;101220.56;;;9.45;100.00
57990;BME280;58373;51.824;5.564;2023-03-21T10:11:11;101216.47;;;9.42;100.00
57990;BME280;58373;51.824;5.564;2023-03-21T10:13:42;101224.81;;;9.46;100.00
57990;BME280;58373;51.824;5.564;2023-03-21T10:16:09;101218.81;;;9.45;100.00
57990;BME280;58373;51.824;5.564;2023-03-21T10:18:37;101221.91;;;9.50;100.00
57990;BME280;58373;51.824;5.564;2023-03-21T10:21:04;101227.00;;;9.52;100.00
57990;BME280;58373;51.824;5.564;2023-03-21T10:23:30;101222.66;;;9.52;100.00
57990;BME280;58373;51.824;5.564;2023-03-21T10:25:56;101228.53;;;9.54;100.00
57990;BME280;58373;51.824;5.564;2023-03-21T10:28:27;101225.72;;;9.57;100.00
57990;BME280;58373;51.824;5.564;2023-03-21T10:30:53;101222.22;;;9.58;100.00
57990;BME280;58373;51.824;5.564;2023-03-21T10:33:21;101216.78;;;9.62;100.00
57990;BME280;58373;51.824;5.564;2023-03-21T10:35:50;101211.41;;;9.65;100.00
57990;BME280;58373;51.824;5.564;2023-03-21T10:38:18;101204.34;;;9.67;100.00
57990;BME280;58373;51.824;5.564;2023-03-21T10:40:44;101198.72;;;9.73;100.00
57990;BME280;58373;51.824;5.564;2023-03-21T10:45:41;101198.56;;;9.87;100.00
57990;BME280;58373;51.824;5.564;2023-03-21T10:48:06;101199.06;;;9.92;100.00
57990;BME280;58373;51.824;5.564;2023-03-21T10:50:32;101203.06;;;9.96;100.00
57990;BME280;58373;51.824;5.564;2023-03-21T10:52:57;101212.50;;;9.97;99.74
57990;BME280;58373;51.824;5.564;2023-03-21T10:55:28;101207.09;;;10.00;99.79
57990;BME280;58373;51.824;5.564;2023-03-21T10:57:56;101213.72;;;10.04;100.00
57990;BME280;58373;51.824;5.564;2023-03-21T11:00:27;101204.75;;;10.08;99.49
57990;BME280;58373;51.824;5.564;2023-03-21T11:02:53;101204.09;;;10.18;100.00
57990;BME280;58373;51.824;5.564;2023-03-21T11:07:49;101204.09;;;10.18;99.33
57990;BME280;58373;51.824;5.564;2023-03-21T11:10:34;101205.75;;;10.19;98.70
57990;BME280;58373;51.824;5.564;2023-03-21T11:13:02;101204.69;;;10.21;99.10
57990;BME280;58373;51.824;5.564;2023-03-21T11:17:56;101208.41;;;10.30;98.85
57990;BME280;58373;51.824;5.564;2023-03-21T11:20:22;101209.84;;;10.34;98.75
57990;BME280;58373;51.824;5.564;2023-03-21T11:22:47;101202.41;;;10.41;99.31
57990;BME280;58373;51.824;5.564;2023-03-21T11:25:46;101201.84;;;10.48;98.59
57990;BME280;58373;51.824;5.564;2023-03-21T11:28:06;101185.09;;;10.52;97.85
57990;BME280;58373;51.824;5.564;2023-03-21T11:30:32;101185.59;;;10.57;97.54
57990;BME280;58373;51.824;5.564;2023-03-21T11:33:00;101186.06;;;10.62;97.18
57990;BME280;58373;51.824;5.564;2023-03-21T11:35:27;101176.66;;;10.61;97.09
57990;BME280;58373;51.824;5.564;2023-03-21T11:37:56;101180.75;;;10.64;96.90
57990;BME280;58373;51.824;5.564;2023-03-21T11:42:53;101200.22;;;10.70;97.38
57990;BME280;58373;51.824;5.564;2023-03-21T11:45:34;101190.31;;;10.75;95.64
57990;BME280;58373;51.824;5.564;2023-03-21T11:48:01;101180.88;;;10.74;95.79
57990;BME280;58373;51.824;5.564;2023-03-21T11:53:04;101173.81;;;10.76;95.07
57990;BME280;58373;51.824;5.564;2023-03-21T12:00:32;101162.47;;;10.88;94.51
57990;BME280;58373;51.824;5.564;2023-03-21T12:05:35;101156.31;;;11.00;94.49
57990;BME280;58373;51.824;5.564;2023-03-21T12:10:47;101170.94;;;11.12;92.95
57990;BME280;58373;51.824;5.564;2023-03-21T12:16:14;101167.41;;;11.13;91.48
57990;BME280;58373;51.824;5.564;2023-03-21T12:21:25;101161.75;;;11.20;92.28
57990;BME280;58373;51.824;5.564;2023-03-21T12:26:24;101141.44;;;11.25;91.18
57990;BME280;58373;51.824;5.564;2023-03-21T12:41:42;101128.53;;;11.34;89.25
57990;BME280;58373;51.824;5.564;2023-03-21T12:44:09;101134.97;;;11.51;86.44
57990;BME280;58373;51.824;5.564;2023-03-21T12:46:42;101134.31;;;11.38;88.62
57990;BME280;58373;51.824;5.564;2023-03-21T12:51:45;101127.81;;;11.43;87.47
57990;BME280;58373;51.824;5.564;2023-03-21T12:54:57;101121.53;;;11.46;87.94
57990;BME280;58373;51.824;5.564;2023-03-21T12:57:02;101126.50;;;11.49;88.70
57990;BME280;58373;51.824;5.564;2023-03-21T13:01:57;101110.31;;;11.78;87.39
57990;BME280;58373;51.824;5.564;2023-03-21T13:06:55;101108.44;;;11.68;86.48
57990;BME280;58373;51.824;5.564;2023-03-21T13:09:36;101111.25;;;11.77;85.71
57990;BME280;58373;51.824;5.564;2023-03-21T13:12:08;101108.53;;;11.78;85.71
57990;BME280;58373;51.824;5.564;2023-03-21T13:14:49;101100.03;;;11.87;85.18
57990;BME280;58373;51.824;5.564;2023-03-21T13:17:18;101100.88;;;11.77;84.99
57990;BME280;58373;51.824;5.564;2023-03-21T13:19:51;101104.78;;;11.82;85.16
57990;BME280;58373;51.824;5.564;2023-03-21T13:22:23;101095.88;;;11.85;86.53
57990;BME280;58373;51.824;5.564;2023-03-21T13:25:03;101096.09;;;11.93;85.50
57990;BME280;58373;51.824;5.564;2023-03-21T13:27:29;101094.84;;;11.97;85.01
57990;BME280;58373;51.824;5.564;2023-03-21T13:29:59;101094.34;;;12.03;84.13
57990;BME280;58373;51.824;5.564;2023-03-21T13:37:27;101085.72;;;12.23;83.93
57990;BME280;58373;51.824;5.564;2023-03-21T13:39:54;101091.50;;;12.37;83.94
57990;BME280;58373;51.824;5.564;2023-03-21T13:42:28;101088.81;;;12.48;81.09
57990;BME280;58373;51.824;5.564;2023-03-21T13:44:58;101080.94;;;12.59;78.24
57990;BME280;58373;51.824;5.564;2023-03-21T13:47:37;101081.16;;;12.46;77.91
57990;BME280;58373;51.824;5.564;2023-03-21T13:52:41;101066.47;;;12.36;77.50
57990;BME280;58373;51.824;5.564;2023-03-21T13:55:14;101067.16;;;12.38;77.75
57990;BME280;58373;51.824;5.564;2023-03-21T13:57:40;101071.28;;;12.40;76.73
57990;BME280;58373;51.824;5.564;2023-03-21T14:00:23;101076.72;;;12.37;76.78
57990;BME280;58373;51.824;5.564;2023-03-21T14:02:55;101079.22;;;12.39;77.54
57990;BME280;58373;51.824;5.564;2023-03-21T14:05:21;101058.94;;;12.42;76.97
57990;BME280;58373;51.824;5.564;2023-03-21T14:07:49;101051.72;;;12.46;76.72
57990;BME280;58373;51.824;5.564;2023-03-21T14:10:17;101057.88;;;12.45;77.07
57990;BME280;58373;51.824;5.564;2023-03-21T14:12:44;101055.97;;;12.47;77.20
57990;BME280;58373;51.824;5.564;2023-03-21T14:17:47;101049.97;;;12.56;76.80
57990;BME280;58373;51.824;5.564;2023-03-21T14:20:15;101049.69;;;12.59;76.76
57990;BME280;58373;51.824;5.564;2023-03-21T14:22:42;101047.78;;;12.61;76.01
57990;BME280;58373;51.824;5.564;2023-03-21T14:25:11;101047.09;;;12.59;76.34
57990;BME280;58373;51.824;5.564;2023-03-21T14:27:37;101045.06;;;12.63;75.91
57990;BME280;58373;51.824;5.564;2023-03-21T14:30:06;101045.06;;;12.63;76.08
57990;BME280;58373;51.824;5.564;2023-03-21T14:32:31;101038.47;;;12.59;76.51
57990;BME280;58373;51.824;5.564;2023-03-21T14:34:58;101029.16;;;12.66;76.47
57990;BME280;58373;51.824;5.564;2023-03-21T14:37:37;101029.75;;;12.69;75.24
57990;BME280;58373;51.824;5.564;2023-03-21T14:40:04;101025.59;;;12.57;75.98